Time;durP1;ratioP1;P1;durP2;ratioP2;P2;SDS_P1;SDS_P2;PMS_P1;PMS_P2;Temp;Humidity;BMP_temperature;BMP_pressure;BME280_temperature;BME280_humidity;BME280_pressure;Samples;Min_cycle;Max_cycle;Signal;HPM_P1;HPM_P2
2021/07/12 00:00:33;;;;;;;;;6.25;6.25;;;;;-143.39;100.00;63593.47;4876291;29;45249;-78
2021/07/12 00:03:00;;;;;;;;;7.50;6.00;;;;;-143.39;100.00;63593.47;4880419;29;45348;-78
2021/07/12 00:05:27;;;;;;;;;10.75;7.00;;;;;-143.39;100.00;63593.47;4882666;29;45632;-78
2021/07/12 00:07:52;;;;;;;;;7.00;7.00;;;;;-143.39;100.00;63593.47;4856144;29;47370;-79
2021/07/12 00:10:22;;;;;;;;;9.50;8.50;;;;;-143.39;100.00;63593.47;4885563;29;45424;-78
2021/07/12 00:12:50;;;;;;;;;8.00;8.00;;;;;-143.39;100.00;63593.47;4884234;29;45242;-79
2021/07/12 00:15:18;;;;;;;;;9.25;7.00;;;;;-143.39;100.00;63593.47;4885434;29;45659;-78
2021/07/12 00:17:45;;;;;;;;;8.75;7.50;;;;;-143.39;100.00;63593.47;4885099;29;45503;-78
2021/07/12 00:20:11;;;;;;;;;9.00;8.25;;;;;-143.39;100.00;63593.47;4885217;29;45258;-78
2021/07/12 00:22:37;;;;;;;;;11.75;9.00;;;;;-143.39;100.00;63593.47;4884027;29;45431;-78
2021/07/12 00:25:06;;;;;;;;;9.25;8.00;;;;;-143.39;100.00;63593.47;4884344;29;45525;-78
2021/07/12 00:27:31;;;;;;;;;6.75;5.75;;;;;-143.39;100.00;63593.47;4883873;29;47318;-78
2021/07/12 00:29:57;;;;;;;;;9.00;7.00;;;;;-143.39;100.00;63593.47;4885255;29;45276;-78
2021/07/12 00:32:23;;;;;;;;;5.00;5.00;;;;;-143.39;100.00;63593.47;4868246;29;45470;-78
2021/07/12 00:34:49;;;;;;;;;5.00;5.00;;;;;-143.39;100.00;63593.47;4883878;29;45495;-78
2021/07/12 00:37:14;;;;;;;;;6.75;5.50;;;;;-143.39;100.00;63593.47;4884874;29;46113;-78
2021/07/12 00:39:40;;;;;;;;;5.75;5.00;;;;;-143.39;100.00;63593.47;4868195;29;45351;-78
2021/07/12 00:42:06;;;;;;;;;5.75;5.75;;;;;-143.39;100.00;63593.47;4885558;29;45467;-78
2021/07/12 00:44:31;;;;;;;;;5.50;4.75;;;;;-143.39;100.00;63593.47;4884918;29;45253;-78
2021/07/12 00:46:57;;;;;;;;;5.50;5.50;;;;;-143.39;100.00;63593.47;4885147;29;46042;-78
2021/07/12 00:49:22;;;;;;;;;6.25;5.00;;;;;-143.39;100.00;63593.47;4868033;29;45969;-78
2021/07/12 00:51:49;;;;;;;;;6.75;6.00;;;;;-143.39;100.00;63593.47;4868199;29;45348;-78
2021/07/12 00:54:14;;;;;;;;;6.50;4.75;;;;;-143.39;100.00;63593.47;4882265;29;45425;-78
2021/07/12 00:56:40;;;;;;;;;8.50;6.00;;;;;-143.39;100.00;63593.47;4882755;29;47246;-78
2021/07/12 00:59:06;;;;;;;;;12.50;9.00;;;;;-143.39;100.00;63593.47;4884815;29;45433;-77
2021/07/12 01:01:31;;;;;;;;;5.00;5.00;;;;;-143.39;100.00;63593.47;4885056;29;45446;-78
2021/07/12 01:03:57;;;;;;;;;9.75;6.00;;;;;-143.39;100.00;63593.47;4867593;29;45426;-78
2021/07/12 01:06:24;;;;;;;;;6.00;6.00;;;;;-143.39;100.00;63593.47;4882496;29;47409;-78
2021/07/12 01:08:49;;;;;;;;;8.00;5.00;;;;;-143.39;100.00;63593.47;4882548;29;45476;-78
2021/07/12 01:11:30;;;;;;;;;6.00;6.00;;;;;-143.39;100.00;63593.47;4884797;29;45305;-77
2021/07/12 01:14:08;;;;;;;;;4.25;3.00;;;;;-143.39;100.00;63593.47;4867876;29;45541;-78
2021/07/12 01:16:54;;;;;;;;;5.75;5.00;;;;;-143.39;100.00;63593.47;4883867;29;45425;-78
2021/07/12 01:19:29;;;;;;;;;8.25;5.75;;;;;-143.39;100.00;63593.47;4867590;29;45757;-78
2021/07/12 01:22:25;;;;;;;;;7.00;7.00;;;;;-143.39;100.00;63593.47;4884721;29;45264;-78
2021/07/12 01:25:28;;;;;;;;;8.00;5.75;;;;;-143.39;100.00;63593.47;4884780;29;45328;-78
2021/07/12 01:28:02;;;;;;;;;4.25;4.25;;;;;-143.39;100.00;63593.47;4884724;29;45350;-78
2021/07/12 01:30:42;;;;;;;;;3.00;3.00;;;;;-143.39;100.00;63593.47;4884500;29;45404;-78
2021/07/12 01:33:22;;;;;;;;;6.00;4.75;;;;;-143.39;100.00;63593.47;4884367;29;45491;-78
2021/07/12 01:36:02;;;;;;;;;5.25;4.50;;;;;-143.39;100.00;63593.47;4862240;29;46291;-77
2021/07/12 01:38:45;;;;;;;;;5.75;4.75;;;;;-143.39;100.00;63593.47;4884010;29;45406;-78
2021/07/12 01:41:35;;;;;;;;;6.75;5.50;;;;;-143.39;100.00;63593.47;4884356;29;45155;-78
2021/07/12 01:44:02;;;;;;;;;7.00;7.00;;;;;-143.39;100.00;63593.47;4884430;29;45551;-77
2021/07/12 01:46:32;;;;;;;;;10.75;9.75;;;;;-143.39;100.00;63593.47;4867433;29;45409;-77
2021/07/12 01:49:12;;;;;;;;;6.00;6.00;;;;;-143.39;100.00;63593.47;4884104;29;46043;-78
2021/07/12 01:51:44;;;;;;;;;7.00;4.25;;;;;-143.39;100.00;63593.47;4884137;29;45671;-78
2021/07/12 01:54:16;;;;;;;;;4.00;4.00;;;;;-143.39;100.00;63593.47;4867385;29;45432;-78
2021/07/12 01:56:55;;;;;;;;;3.50;3.50;;;;;-143.39;100.00;63593.47;4882785;29;45234;-77
2021/07/12 01:59:44;;;;;;;;;4.75;3.00;;;;;-143.39;100.00;63593.47;4884257;29;46188;-77
2021/07/12 02:02:12;;;;;;;;;4.00;4.00;;;;;-143.39;100.00;63593.47;4867176;29;45330;-77
2021/07/12 02:04:41;;;;;;;;;3.50;3.00;;;;;-143.39;100.00;63593.47;4867473;29;45549;-78
2021/07/12 02:07:12;;;;;;;;;4.00;4.00;;;;;-143.39;100.00;63593.47;4867093;29;45535;-78
2021/07/12 02:09:38;;;;;;;;;4.75;4.00;;;;;-143.39;100.00;63593.47;4884134;29;45502;-78
2021/07/12 02:12:04;;;;;;;;;7.25;4.75;;;;;-143.39;100.00;63593.47;4882976;29;46357;-78
2021/07/12 02:14:30;;;;;;;;;2.50;2.50;;;;;-143.39;100.00;63593.47;4884378;29;45451;-78
2021/07/12 02:16:56;;;;;;;;;4.00;2.75;;;;;-143.39;100.00;63593.47;4882684;29;45634;-78
2021/07/12 02:19:23;;;;;;;;;3.00;3.00;;;;;-143.39;100.00;63593.47;4883818;29;45487;-77
2021/07/12 02:21:52;;;;;;;;;4.00;3.25;;;;;-143.39;100.00;63593.47;4883753;29;45334;-78
2021/07/12 02:24:20;;;;;;;;;2.25;2.25;;;;;-143.39;100.00;63593.47;4867169;29;45258;-78
2021/07/12 02:26:46;;;;;;;;;2.00;2.00;;;;;-143.39;100.00;63593.47;4882567;29;45453;-77
2021/07/12 02:29:15;;;;;;;;;3.25;3.00;;;;;-143.39;100.00;63593.47;4883851;29;46229;-77
2021/07/12 02:31:41;;;;;;;;;3.00;3.00;;;;;-143.39;100.00;63593.47;4883766;29;45253;-78
2021/07/12 02:34:08;;;;;;;;;3.25;3.25;;;;;-143.39;100.00;63593.47;4881943;29;45487;-78
2021/07/12 02:36:35;;;;;;;;;4.50;4.00;;;;;-143.39;100.00;63593.47;4879191;29;45764;-78
2021/07/12 02:39:02;;;;;;;;;4.00;2.00;;;;;-143.39;100.00;63593.47;4880984;29;45424;-78
2021/07/12 02:41:29;;;;;;;;;3.00;2.00;;;;;-143.39;100.00;63593.47;4883847;29;45308;-78
2021/07/12 02:43:55;;;;;;;;;4.00;3.75;;;;;-143.39;100.00;63593.47;4866741;29;45348;-78
2021/07/12 02:46:23;;;;;;;;;3.00;3.00;;;;;-143.39;100.00;63593.47;4882545;29;45207;-78
2021/07/12 02:48:49;;;;;;;;;5.25;4.50;;;;;-143.39;100.00;63593.47;4883873;29;46438;-78
2021/07/12 02:51:17;;;;;;;;;3.50;3.50;;;;;-143.39;100.00;63593.47;4869635;29;46107;-78
2021/07/12 02:53:49;;;;;;;;;3.00;3.00;;;;;-143.39;100.00;63593.47;4887126;29;45460;-77
2021/07/12 02:56:15;;;;;;;;;4.75;4.75;;;;;-143.39;100.00;63593.47;4873927;29;45688;-78
2021/07/12 02:58:41;;;;;;;;;4.25;4.00;;;;;-143.39;100.00;63593.47;4886780;29;45612;-78
2021/07/12 03:01:07;;;;;;;;;5.25;5.25;;;;;-143.39;100.00;63593.47;4869708;29;45457;-78
2021/07/12 03:03:32;;;;;;;;;4.00;4.00;;;;;-143.39;100.00;63593.47;4886794;29;45388;-77
2021/07/12 03:06:10;;;;;;;;;4.50;4.50;;;;;-143.39;100.00;63593.47;4886705;29;45489;-78
2021/07/12 03:09:02;;;;;;;;;6.50;4.00;;;;;-143.39;100.00;63593.47;4882962;29;45407;-77
2021/07/12 03:11:45;;;;;;;;;3.00;3.00;;;;;-143.39;100.00;63593.47;4886696;29;45441;-78
2021/07/12 03:14:19;;;;;;;;;4.25;4.25;;;;;-143.39;100.00;63593.47;4886852;29;45325;-78
2021/07/12 03:16:48;;;;;;;;;3.25;3.00;;;;;-143.39;100.00;63593.47;4869675;29;45525;-78
2021/07/12 03:19:25;;;;;;;;;4.00;4.00;;;;;-143.39;100.00;63593.47;4884905;29;48211;-78
2021/07/12 03:21:52;;;;;;;;;3.00;3.00;;;;;-143.39;100.00;63593.47;4886256;29;45372;-77
2021/07/12 03:24:19;;;;;;;;;4.25;3.00;;;;;-143.39;100.00;63593.47;4885134;29;45217;-77
2021/07/12 03:26:46;;;;;;;;;5.75;4.50;;;;;-143.39;100.00;63593.47;4886483;29;45421;-78
2021/07/12 03:29:16;;;;;;;;;4.75;3.50;;;;;-143.39;100.00;63593.47;4869335;29;45483;-78
2021/07/12 03:31:43;;;;;;;;;4.00;4.00;;;;;-143.39;100.00;63593.47;4886147;29;45413;-78
2021/07/12 03:34:11;;;;;;;;;4.00;3.50;;;;;-143.39;100.00;63593.47;4886415;29;45312;-78
2021/07/12 03:36:38;;;;;;;;;4.00;4.00;;;;;-143.39;100.00;63593.47;4867308;29;45618;-78
2021/07/12 03:39:05;;;;;;;;;3.25;3.25;;;;;-143.39;100.00;63593.47;4886269;29;45503;-78
2021/07/12 03:41:31;;;;;;;;;4.50;4.50;;;;;-143.39;100.00;63593.47;4886065;29;45591;-78
2021/07/12 03:43:59;;;;;;;;;2.75;2.75;;;;;-143.39;100.00;63593.47;4883202;29;45487;-77
2021/07/12 03:46:25;;;;;;;;;4.00;4.00;;;;;-143.39;100.00;63593.47;4885971;29;45464;-78
2021/07/12 03:48:50;;;;;;;;;4.00;4.00;;;;;-143.39;100.00;63593.47;4885683;29;45477;-78
2021/07/12 03:51:21;;;;;;;;;4.00;3.00;;;;;-143.39;100.00;63593.47;4885934;29;45447;-77
2021/07/12 03:53:46;;;;;;;;;4.50;4.00;;;;;-143.39;100.00;63593.47;4869056;29;45272;-77
2021/07/12 03:56:12;;;;;;;;;5.75;3.25;;;;;-143.39;100.00;63593.47;4878641;29;45554;-77
2021/07/12 03:58:37;;;;;;;;;5.00;3.50;;;;;-143.39;100.00;63593.47;4882184;29;45883;-78
2021/07/12 04:01:03;;;;;;;;;5.00;4.00;;;;;-143.39;100.00;63593.47;4884541;29;45295;-78
2021/07/12 04:03:28;;;;;;;;;5.00;4.00;;;;;-143.39;100.00;63593.47;4885781;29;45463;-78
2021/07/12 04:05:54;;;;;;;;;4.00;4.00;;;;;-143.39;100.00;63593.47;4885788;29;45416;-78
2021/07/12 04:08:19;;;;;;;;;3.00;3.00;;;;;-143.39;100.00;63593.47;4885630;29;45525;-77
2021/07/12 04:10:45;;;;;;;;;4.50;4.50;;;;;-143.39;100.00;63593.47;4868724;29;45411;-78
2021/07/12 04:13:12;;;;;;;;;6.00;4.00;;;;;-143.39;100.00;63593.47;4885818;29;45527;-78
2021/07/12 04:15:38;;;;;;;;;3.75;3.75;;;;;-143.39;100.00;63593.47;4871912;29;45949;-77
2021/07/12 04:18:05;;;;;;;;;3.00;3.00;;;;;-143.39;100.00;63593.47;4885888;29;48209;-78
2021/07/12 04:20:31;;;;;;;;;3.50;3.50;;;;;-143.39;100.00;63593.47;4883725;29;45399;-77
2021/07/12 04:22:56;;;;;;;;;6.00;4.50;;;;;-143.39;100.00;63593.47;4885466;29;45313;-77
2021/07/12 04:25:21;;;;;;;;;7.50;4.00;;;;;-143.39;100.00;63593.47;4868700;29;45463;-77
2021/07/12 04:27:47;;;;;;;;;5.25;4.00;;;;;-143.39;100.00;63593.47;4885233;29;45328;-77
2021/07/12 04:30:13;;;;;;;;;5.25;4.00;;;;;-143.39;100.00;63593.47;4885549;29;45472;-78
2021/07/12 04:32:39;;;;;;;;;4.75;4.00;;;;;-143.39;100.00;63593.47;4885593;29;45502;-78
2021/07/12 04:35:05;;;;;;;;;3.75;3.75;;;;;-143.39;100.00;63593.47;4870817;29;45321;-77
2021/07/12 04:37:30;;;;;;;;;4.00;4.00;;;;;-143.39;100.00;63593.47;4888553;29;45391;-77
2021/07/12 04:39:56;;;;;;;;;4.00;3.25;;;;;-143.39;100.00;63593.47;4885792;29;45364;-77
2021/07/12 04:42:21;;;;;;;;;5.00;4.00;;;;;-143.39;100.00;63593.47;4885509;29;45847;-77
2021/07/12 04:44:47;;;;;;;;;3.50;3.50;;;;;-143.39;100.00;63593.47;4885089;29;45575;-77
2021/07/12 04:47:12;;;;;;;;;3.25;3.25;;;;;-143.39;100.00;63593.47;4868062;29;47860;-77
2021/07/12 04:49:37;;;;;;;;;4.50;4.50;;;;;-143.39;100.00;63593.47;4885151;29;45322;-77
2021/07/12 04:52:04;;;;;;;;;4.00;4.00;;;;;-143.39;100.00;63593.47;4885356;29;45244;-76
2021/07/12 04:54:29;;;;;;;;;4.00;4.00;;;;;-143.39;100.00;63593.47;4868106;29;45616;-77
2021/07/12 04:56:55;;;;;;;;;5.50;4.75;;;;;-143.39;100.00;63593.47;4866237;29;47378;-78
2021/07/12 04:59:27;;;;;;;;;5.50;5.50;;;;;-143.39;100.00;63593.47;4885187;29;45413;-78
2021/07/12 05:01:54;;;;;;;;;6.50;5.00;;;;;-143.39;100.00;63593.47;4885327;29;45343;-78
2021/07/12 05:04:19;;;;;;;;;5.00;4.25;;;;;-143.39;100.00;63593.47;4885175;29;45371;-78
2021/07/12 05:06:45;;;;;;;;;7.50;4.50;;;;;-143.39;100.00;63593.47;4884658;29;45258;-78
2021/07/12 05:09:10;;;;;;;;;5.00;5.00;;;;;-143.39;100.00;63593.47;4867994;29;45293;-78
2021/07/12 05:11:36;;;;;;;;;7.50;5.00;;;;;-143.39;100.00;63593.47;4882577;29;45492;-78
2021/07/12 05:14:01;;;;;;;;;3.00;3.00;;;;;-143.39;100.00;63593.47;4887899;29;45162;-78
2021/07/12 05:16:27;;;;;;;;;6.25;5.00;;;;;-143.39;100.00;63593.47;4876547;29;46852;-79
2021/07/12 05:18:54;;;;;;;;;6.50;5.00;;;;;-143.39;100.00;63593.47;4884834;28;45299;-78
2021/07/12 05:21:19;;;;;;;;;6.50;5.25;;;;;-143.39;100.00;63593.47;4886551;29;45508;-79
2021/07/12 05:23:45;;;;;;;;;6.25;5.25;;;;;-143.39;100.00;63593.47;4884008;29;45528;-79
2021/07/12 05:26:10;;;;;;;;;4.00;4.00;;;;;-143.39;100.00;63593.47;4893845;29;45566;-77
2021/07/12 05:28:37;;;;;;;;;8.75;6.00;;;;;-143.39;100.00;63593.47;4888167;29;45338;-78
2021/07/12 05:31:06;;;;;;;;;7.75;5.50;;;;;-143.39;100.00;63593.47;4882467;29;45465;-77
2021/07/12 05:33:32;;;;;;;;;6.00;5.25;;;;;-143.39;100.00;63593.47;4884111;29;45226;-78
2021/07/12 05:35:57;;;;;;;;;4.75;4.50;;;;;-143.39;100.00;63593.47;4884073;29;45447;-78
2021/07/12 05:38:23;;;;;;;;;7.25;5.50;;;;;-143.39;100.00;63593.47;4884625;29;45162;-78
2021/07/12 05:40:48;;;;;;;;;6.50;6.00;;;;;-143.39;100.00;63593.47;4871508;29;45555;-79
2021/07/12 05:43:14;;;;;;;;;7.00;5.00;;;;;-143.39;100.00;63593.47;4889341;29;45315;-78
2021/07/12 05:45:39;;;;;;;;;7.25;5.00;;;;;-143.39;100.00;63593.47;4883427;29;45522;-78
2021/07/12 05:48:06;;;;;;;;;6.00;6.00;;;;;-143.39;100.00;63593.47;4882625;29;45396;-78
2021/07/12 05:50:31;;;;;;;;;4.00;4.00;;;;;-143.39;100.00;63593.47;4882628;29;45498;-78
2021/07/12 05:52:57;;;;;;;;;7.75;6.00;;;;;-143.39;100.00;63593.47;4867183;29;45493;-78
2021/07/12 05:55:22;;;;;;;;;5.25;5.25;;;;;-143.39;100.00;63593.47;4865478;29;48100;-78
2021/07/12 05:57:47;;;;;;;;;8.75;5.00;;;;;-143.39;100.00;63593.47;4884048;29;45296;-78
2021/07/12 06:00:13;;;;;;;;;9.25;6.00;;;;;-143.39;100.00;63593.47;4864366;29;45306;-78
2021/07/12 06:02:43;;;;;;;;;4.50;3.00;;;;;-143.39;100.00;63593.47;4880295;29;45533;-77
2021/07/12 06:05:09;;;;;;;;;5.50;5.50;;;;;-143.39;100.00;63593.47;4877095;29;46875;-78
2021/07/12 06:07:35;;;;;;;;;7.25;5.00;;;;;-143.39;100.00;63593.47;4875350;29;46304;-78
2021/07/12 06:10:01;;;;;;;;;7.00;6.00;;;;;-143.39;100.00;63593.47;4885593;29;45527;-78
2021/07/12 06:12:26;;;;;;;;;5.75;5.75;;;;;-143.39;100.00;63593.47;4881403;29;45483;-78
2021/07/12 06:14:52;;;;;;;;;6.25;4.75;;;;;-143.39;100.00;63593.47;4888134;29;46367;-78
2021/07/12 06:17:17;;;;;;;;;5.50;5.00;;;;;-143.39;100.00;63593.47;4866809;29;46296;-78
2021/07/12 06:19:42;;;;;;;;;7.25;6.00;;;;;-143.39;100.00;63593.47;4885716;29;45372;-78
2021/07/12 06:22:08;;;;;;;;;5.75;5.75;;;;;-143.39;100.00;63593.47;4882113;29;45477;-78
2021/07/12 06:24:33;;;;;;;;;5.75;5.25;;;;;-143.39;100.00;63593.47;4893464;29;48578;-78
2021/07/12 06:26:59;;;;;;;;;4.75;4.75;;;;;-143.39;100.00;63593.47;4887705;29;45674;-78
2021/07/12 06:29:25;;;;;;;;;7.00;6.00;;;;;-143.39;100.00;63593.47;4865481;29;46668;-78
2021/07/12 06:31:50;;;;;;;;;7.50;6.00;;;;;-143.39;100.00;63593.47;4888198;29;45238;-78
2021/07/12 06:34:16;;;;;;;;;10.00;6.75;;;;;-143.39;100.00;63593.47;4878917;29;48494;-78
2021/07/12 06:36:41;;;;;;;;;6.00;5.25;;;;;-143.39;100.00;63593.47;4881731;29;45189;-78
2021/07/12 06:39:07;;;;;;;;;6.00;6.00;;;;;-143.39;100.00;63593.47;4885086;29;45495;-78
2021/07/12 06:41:33;;;;;;;;;8.25;7.00;;;;;-143.39;100.00;63593.47;4891112;29;45426;-78
2021/07/12 06:43:59;;;;;;;;;11.00;7.50;;;;;-143.39;100.00;63593.47;4892667;29;45342;-79
2021/07/12 06:46:24;;;;;;;;;10.00;7.75;;;;;-143.39;100.00;63593.47;4891239;29;45255;-78
2021/07/12 06:48:49;;;;;;;;;7.50;7.00;;;;;-143.39;100.00;63593.47;4887700;29;45379;-79
2021/07/12 06:51:16;;;;;;;;;9.50;7.75;;;;;-143.39;100.00;63593.47;4884949;29;45338;-77
2021/07/12 06:53:41;;;;;;;;;10.75;8.00;;;;;-143.39;100.00;63593.47;4887127;29;46430;-79
2021/07/12 06:56:06;;;;;;;;;12.75;10.50;;;;;-143.39;100.00;63593.47;4884239;29;45454;-77
2021/07/12 06:58:32;;;;;;;;;10.75;9.25;;;;;-143.39;100.00;63593.47;4887184;29;45321;-79
2021/07/12 07:00:57;;;;;;;;;10.50;8.75;;;;;-143.39;100.00;63593.47;4882088;29;45436;-78
2021/07/12 07:03:23;;;;;;;;;14.75;9.50;;;;;-143.39;100.00;63593.47;4875095;29;46110;-79
2021/07/12 07:05:48;;;;;;;;;10.25;8.25;;;;;-143.39;100.00;63593.47;4886493;29;45903;-79
2021/07/12 07:08:14;;;;;;;;;10.00;9.00;;;;;-143.39;100.00;63593.47;4886733;29;45714;-78
2021/07/12 07:10:39;;;;;;;;;10.00;7.25;;;;;-143.39;100.00;63593.47;4887495;29;45491;-78
2021/07/12 07:13:05;;;;;;;;;10.00;7.75;;;;;-143.39;100.00;63593.47;4884944;29;45568;-78
2021/07/12 07:15:30;;;;;;;;;12.25;9.00;;;;;-143.39;100.00;63593.47;4888952;29;45395;-77
2021/07/12 07:17:55;;;;;;;;;10.75;8.25;;;;;-143.39;100.00;63593.47;4883425;29;45837;-78
2021/07/12 07:20:24;;;;;;;;;11.50;9.25;;;;;-143.39;100.00;63593.47;4895040;29;45213;-77
2021/07/12 07:22:49;;;;;;;;;10.25;9.50;;;;;-143.39;100.00;63593.47;4887079;29;46049;-77
2021/07/12 07:25:15;;;;;;;;;9.00;9.00;;;;;-143.39;100.00;63593.47;4873263;29;45428;-78
2021/07/12 07:27:40;;;;;;;;;14.25;11.50;;;;;-143.39;100.00;63593.47;4890803;29;45446;-79
2021/07/12 07:30:07;;;;;;;;;11.00;9.50;;;;;-143.39;100.00;63593.47;4886714;29;45464;-80
2021/07/12 07:32:33;;;;;;;;;11.75;9.50;;;;;-143.39;100.00;63593.47;4887505;29;45505;-78
2021/07/12 07:34:59;;;;;;;;;11.00;11.00;;;;;-143.39;100.00;63593.47;4887465;29;45262;-78
2021/07/12 07:37:24;;;;;;;;;10.25;10.25;;;;;-143.39;100.00;63593.47;4881722;29;45620;-78
2021/07/12 07:39:50;;;;;;;;;10.00;10.00;;;;;-143.39;100.00;63593.47;4886450;29;45413;-78
2021/07/12 07:42:15;;;;;;;;;10.75;9.50;;;;;-143.39;100.00;63593.47;4887322;29;45234;-77
2021/07/12 07:44:40;;;;;;;;;13.25;11.25;;;;;-143.39;100.00;63593.47;4888215;29;45173;-77
2021/07/12 07:47:06;;;;;;;;;12.25;12.00;;;;;-143.39;100.00;63593.47;4887600;29;45268;-77
2021/07/12 07:49:32;;;;;;;;;10.50;9.75;;;;;-143.39;100.00;63593.47;4889148;29;45434;-78
2021/07/12 07:51:58;;;;;;;;;13.25;10.50;;;;;-143.39;100.00;63593.47;4889432;29;45215;-77
2021/07/12 07:54:23;;;;;;;;;13.75;10.75;;;;;-143.39;100.00;63593.47;4870813;29;45693;-77
2021/07/12 07:56:48;;;;;;;;;11.50;11.50;;;;;-143.39;100.00;63593.47;4879514;29;45590;-77
2021/07/12 07:59:15;;;;;;;;;10.75;10.75;;;;;-143.39;100.00;63593.47;4882784;29;45207;-77
2021/07/12 08:01:44;;;;;;;;;12.50;9.50;;;;;-143.39;100.00;63593.47;4900826;29;45288;-78
2021/07/12 08:04:09;;;;;;;;;13.00;12.50;;;;;-143.39;100.00;63593.47;4887608;29;45481;-77
2021/07/12 08:06:34;;;;;;;;;11.50;10.00;;;;;-143.39;100.00;63593.47;4885904;29;45270;-77
2021/07/12 08:09:00;;;;;;;;;11.00;9.00;;;;;-143.39;100.00;63593.47;4884572;29;45419;-77
2021/07/12 08:11:26;;;;;;;;;10.25;10.25;;;;;-143.39;100.00;63593.47;4885982;29;46280;-77
2021/07/12 08:13:51;;;;;;;;;13.75;12.00;;;;;-143.39;100.00;63593.47;4885772;29;45232;-77
2021/07/12 08:16:17;;;;;;;;;18.50;11.25;;;;;-143.39;100.00;63593.47;4884693;29;45399;-77
2021/07/12 08:18:43;;;;;;;;;12.25;9.75;;;;;-143.39;100.00;63593.47;4884433;29;45458;-77
2021/07/12 08:21:10;;;;;;;;;16.75;12.50;;;;;-143.39;100.00;63593.47;4868572;29;47614;-77
2021/07/12 08:23:36;;;;;;;;;16.25;14.00;;;;;-143.39;100.00;63593.47;4886014;29;45420;-78
2021/07/12 08:26:02;;;;;;;;;13.25;12.25;;;;;-143.39;100.00;63593.47;4887257;29;45468;-78
2021/07/12 08:28:27;;;;;;;;;13.25;10.00;;;;;-143.39;100.00;63593.47;4889551;29;45703;-78
2021/07/12 08:30:53;;;;;;;;;12.75;8.50;;;;;-143.39;100.00;63593.47;4870064;29;47722;-78
2021/07/12 08:33:20;;;;;;;;;12.25;11.25;;;;;-143.39;100.00;63593.47;4869263;29;45339;-78
2021/07/12 08:35:46;;;;;;;;;12.50;10.50;;;;;-143.39;100.00;63593.47;4885597;29;45304;-78
2021/07/12 08:38:11;;;;;;;;;10.25;9.25;;;;;-143.39;100.00;63593.47;4885506;29;45373;-78
2021/07/12 08:40:36;;;;;;;;;8.75;8.75;;;;;-143.39;100.00;63593.47;4883414;29;45589;-79
2021/07/12 08:43:02;;;;;;;;;12.50;9.00;;;;;-143.39;100.00;63593.47;4885352;29;45164;-78
2021/07/12 08:45:29;;;;;;;;;10.50;9.00;;;;;-143.39;100.00;63593.47;4849690;29;45252;-79
2021/07/12 08:47:55;;;;;;;;;16.50;8.00;;;;;-143.39;100.00;63593.47;4868823;29;45288;-78
2021/07/12 08:50:22;;;;;;;;;12.00;9.75;;;;;-143.39;100.00;63593.47;4881015;29;45320;-78
2021/07/12 08:52:49;;;;;;;;;12.25;8.50;;;;;-143.39;100.00;63593.47;4885518;29;45227;-78
2021/07/12 08:55:15;;;;;;;;;11.50;8.75;;;;;-143.39;100.00;63593.47;4885460;29;45274;-78
2021/07/12 08:57:55;;;;;;;;;12.00;9.50;;;;;-143.39;100.00;63593.47;4879277;29;45264;-77
2021/07/12 09:00:47;;;;;;;;;9.25;9.00;;;;;-143.39;100.00;63593.47;4883848;29;46738;-77
2021/07/12 09:03:27;;;;;;;;;11.00;9.00;;;;;-143.39;100.00;63593.47;4885189;29;45461;-79
2021/07/12 09:06:07;;;;;;;;;14.75;12.00;;;;;-143.39;100.00;63593.47;4887081;29;45429;-78
2021/07/12 09:08:53;;;;;;;;;13.25;12.75;;;;;-143.39;100.00;63593.47;4870575;29;45267;-77
2021/07/12 09:11:24;;;;;;;;;11.75;10.00;;;;;-143.39;100.00;63593.47;4888214;29;46509;-77
2021/07/12 09:13:58;;;;;;;;;12.50;11.50;;;;;-143.39;100.00;63593.47;4869632;29;45677;-78
2021/07/12 09:16:41;;;;;;;;;18.25;10.00;;;;;-143.39;100.00;63593.47;4869745;29;45616;-78
2021/07/12 09:19:29;;;;;;;;;14.75;12.25;;;;;-143.39;100.00;63593.47;4878694;29;45508;-78
2021/07/12 09:21:58;;;;;;;;;15.75;12.00;;;;;-143.39;100.00;63593.47;4868560;29;47319;-78
2021/07/12 09:24:45;;;;;;;;;15.25;10.25;;;;;-143.39;100.00;63593.47;4886269;29;45461;-77
2021/07/12 09:27:20;;;;;;;;;14.00;10.25;;;;;-143.39;100.00;63593.47;4895388;29;45476;-78
2021/07/12 09:29:48;;;;;;;;;12.25;10.00;;;;;-143.39;100.00;63593.47;4872585;29;45414;-78
2021/07/12 09:32:19;;;;;;;;;11.50;10.50;;;;;-143.39;100.00;63593.47;4886511;29;46336;-78
2021/07/12 09:34:47;;;;;;;;;11.00;10.00;;;;;-143.39;100.00;63593.47;4885684;29;45493;-77
2021/07/12 09:37:20;;;;;;;;;10.50;8.50;;;;;-143.39;100.00;63593.47;4868583;29;45440;-78
2021/07/12 09:39:48;;;;;;;;;11.00;8.00;;;;;-143.39;100.00;63593.47;4870281;29;45568;-78
2021/07/12 09:42:18;;;;;;;;;10.75;7.25;;;;;-143.39;100.00;63593.47;4894353;29;45475;-78
2021/07/12 09:44:58;;;;;;;;;9.00;7.00;;;;;-143.39;100.00;63593.47;4885229;29;45383;-78
2021/07/12 09:47:26;;;;;;;;;13.25;9.50;;;;;-143.39;100.00;63593.47;4888986;29;45368;-78
2021/07/12 09:50:00;;;;;;;;;12.75;9.25;;;;;-143.39;100.00;63593.47;4872436;29;45452;-78
2021/07/12 09:52:25;;;;;;;;;10.00;7.25;;;;;-143.39;100.00;63593.47;4887082;29;45379;-77
2021/07/12 09:54:52;;;;;;;;;20.50;12.00;;;;;-143.39;100.00;63593.47;4871699;29;45304;-78
2021/07/12 09:57:20;;;;;;;;;11.50;11.25;;;;;-143.39;100.00;63593.47;4874329;29;45353;-78
2021/07/12 09:59:56;;;;;;;;;13.75;9.50;;;;;-143.39;100.00;63593.47;4888102;29;45408;-78
2021/07/12 10:02:24;;;;;;;;;12.50;9.50;;;;;-143.39;100.00;63593.47;4887737;29;45441;-78
2021/07/12 10:04:54;;;;;;;;;11.00;7.50;;;;;-143.39;100.00;63593.47;4887819;29;45470;-78
2021/07/12 10:07:20;;;;;;;;;9.50;8.50;;;;;-143.39;100.00;63593.47;4887787;29;45437;-78
2021/07/12 10:09:46;;;;;;;;;13.25;10.25;;;;;-143.39;100.00;63593.47;4887618;29;45478;-78
2021/07/12 10:12:12;;;;;;;;;11.75;8.00;;;;;-143.39;100.00;63593.47;4896127;29;46177;-78
2021/07/12 10:14:37;;;;;;;;;14.00;11.75;;;;;-143.39;100.00;63593.47;4907660;29;41780;-78
2021/07/12 10:17:07;;;;;;;;;10.00;9.50;;;;;-143.39;100.00;63593.47;4898005;29;100950;-78
2021/07/12 10:19:32;;;;;;;;;9.25;6.75;;;;;-143.39;100.00;63593.47;4892828;29;45347;-78
2021/07/12 10:21:58;;;;;;;;;9.50;8.00;;;;;-143.39;100.00;63593.47;4887277;29;45419;-78
2021/07/12 10:24:33;;;;;;;;;12.50;9.25;;;;;-143.39;100.00;63593.47;4887474;29;45711;-78
2021/07/12 10:27:00;;;;;;;;;12.00;11.00;;;;;-143.39;100.00;63593.47;4887447;29;45261;-78
2021/07/12 10:29:37;;;;;;;;;16.25;10.75;;;;;-143.39;100.00;63593.47;4886218;29;45378;-78
2021/07/12 10:32:05;;;;;;;;;17.75;12.00;;;;;-143.39;100.00;63593.47;4887263;29;45544;-78
2021/07/12 10:34:37;;;;;;;;;18.25;15.50;;;;;-143.39;100.00;63593.47;4887199;29;45509;-77
2021/07/12 10:37:15;;;;;;;;;16.50;13.50;;;;;-143.39;100.00;63593.47;4887107;29;45510;-78
2021/07/12 10:39:59;;;;;;;;;13.75;11.50;;;;;-143.39;100.00;63593.47;4874994;29;45239;-78
2021/07/12 10:42:46;;;;;;;;;16.50;14.50;;;;;-143.39;100.00;63593.47;4870072;29;46341;-78
2021/07/12 10:45:16;;;;;;;;;17.00;13.25;;;;;-143.39;100.00;63593.47;4887292;29;45380;-78
2021/07/12 10:47:47;;;;;;;;;22.25;14.25;;;;;-143.39;100.00;63593.47;4887042;29;45380;-78
2021/07/12 10:50:40;;;;;;;;;14.25;13.50;;;;;-143.39;100.00;63593.47;4885042;29;45233;-79
2021/07/12 10:53:14;;;;;;;;;16.25;11.50;;;;;-143.39;100.00;63593.47;4869690;29;47274;-78
2021/07/12 10:55:42;;;;;;;;;13.50;13.50;;;;;-143.39;100.00;63593.47;4883543;29;45251;-80
2021/07/12 10:58:33;;;;;;;;;14.75;13.75;;;;;-143.39;100.00;63593.47;4862428;29;45269;-79
2021/07/12 11:01:00;;;;;;;;;14.25;11.50;;;;;-143.39;100.00;63593.47;4876151;29;45537;-79
2021/07/12 11:03:41;;;;;;;;;16.75;14.00;;;;;-143.39;100.00;63593.47;4887309;29;45696;-79
2021/07/12 11:06:14;;;;;;;;;16.50;14.75;;;;;-143.39;100.00;63593.47;4876058;29;45504;-79
2021/07/12 11:08:52;;;;;;;;;13.75;11.75;;;;;-143.39;100.00;63593.47;4893828;29;46314;-79
2021/07/12 11:11:23;;;;;;;;;15.00;12.00;;;;;-143.39;100.00;63593.47;4891026;29;45564;-79